Aces Wild — WDE3369 — position and weather

sailwx.info

Track history (hours):
 
Tides and Currents Weather Stations Pressure Air Temp Water Temp Dewpoint Dewpoint Depression Visibility Wind Speed Wind Dir Waves Ship Positions

Aces Wild

Owner: C & C Boats, Inc., Huntington Beach, CA. More information available from US FCC via Universal Licensing System and Coast Guard Vessel Documentation Center.

Last reported at 2018-May-27 15:14 UTC. Time now 2018-Jun-20 16:43 UTC.
Position N 34°14' W 119°16'.
Warning: this ship's position is 24 days out of date.

Length 34 m.

Type: Passenger vessel. MMSI: 367338120.

Date/timePositionNaut miles runAvg speedWind from/ knotsBaromVisibWave heightAir tempDewpointWater temp
2018-May-27 15:14N 34°14' W 119°16'1 5.0
2018-May-27 14:59N 34°15' W 119°17'816.4
2018-May-27 14:30N 34°19' W 119°25'611.7
2018-May-27 13:57N 34°21' W 119°32'1 0.5
2018-May-27 10:54N 34°20' W 119°34'0 0.0
2018-May-27 10:28N 34°20' W 119°34'0 0.0
2018-May-27 06:41N 34°20' W 119°34'0 0.0
2018-May-27 06:19N 34°20' W 119°34'0 0.0
2018-May-27 05:10N 34°20' W 119°34'0 0.0
2018-May-27 04:54N 34°20' W 119°34'0 0.0
2018-May-27 04:26N 34°20' W 119°34'0 0.0
2018-May-27 03:49N 34°20' W 119°34'0 0.0
2018-May-27 02:16N 34°20' W 119°34'3 7.5
2018-May-27 01:53N 34°22' W 119°31'2 5.0
2018-May-27 01:27N 34°20' W 119°33'3 6.8
2018-May-27 00:58N 34°23' W 119°30'0 0.0
2018-May-27 00:30N 34°23' W 119°30'0 0.1
2018-May-27 00:00N 34°23' W 119°30'0 0.0
2018-May-26 23:25N 34°23' W 119°30'0 0.0
2018-May-26 23:00N 34°23' W 119°30'0 0.0
2018-May-26 22:28N 34°23' W 119°30'1 1.1
2018-May-26 21:58N 34°23' W 119°30'3 0.5
2018-May-26 16:11N 34°20' W 119°33'0 0.0
2018-May-26 15:52N 34°20' W 119°33'0 0.0
2018-May-26 14:48N 34°20' W 119°33'0 0.0
2018-May-26 14:25N 34°20' W 119°33'1 1.1
2018-May-26 13:52N 34°20' W 119°33'4 1.1
2018-May-26 10:32N 34°23' W 119°30'0 0.0
2018-May-26 10:20N 34°23' W 119°30'0 0.0
2018-May-26 09:40N 34°23' W 119°30'0 0.0
2018-May-26 09:18N 34°23' W 119°30'0 0.1
2018-May-26 08:58N 34°23' W 119°30'0 0.1
2018-May-26 08:24N 34°23' W 119°30'0 0.0
2018-May-26 07:57N 34°23' W 119°30'0 0.0
2018-May-26 06:47N 34°23' W 119°30'0 0.0
2018-May-26 06:25N 34°23' W 119°30'0 0.0
2018-May-26 04:27N 34°23' W 119°30'0 0.0
2018-May-26 03:57N 34°23' W 119°30'0 0.0
2018-May-26 03:28N 34°23' W 119°30'0 0.0
2018-May-26 02:55N 34°23' W 119°30'0 0.0
2018-May-26 02:28N 34°23' W 119°30'1 0.8
2018-May-26 01:48N 34°23' W 119°30'3 8.6
2018-May-26 01:25N 34°20' W 119°33'3 8.0
2018-May-26 01:00N 34°23' W 119°30'3 4.4
2018-May-26 00:17N 34°20' W 119°33'0 0.0
2018-May-25 22:36N 34°20' W 119°33'1 9.6
2018-May-25 22:27N 34°21' W 119°31'0 0.0
2018-May-25 18:02N 34°21' W 119°32'2 6.8
2018-May-25 17:44N 34°23' W 119°30'0 0.0
2018-May-25 17:29N 34°23' W 119°30'1 0.4
2018-May-25 16:09N 34°23' W 119°30'3 2.6
2018-May-25 14:48N 34°20' W 119°33'1 1.1
2018-May-25 14:20N 34°20' W 119°33'3 3.6
2018-May-25 13:26N 34°23' W 119°30'1 0.8
2018-May-25 12:47N 34°23' W 119°30'0 0.0
2018-May-25 11:28N 34°23' W 119°30'0 0.0
2018-May-25 10:55N 34°23' W 119°30'0 0.0
2018-May-25 10:28N 34°23' W 119°30'0 0.0
2018-May-25 09:04N 34°23' W 119°30'0 0.0
2018-May-25 08:34N 34°23' W 119°30'0 0.0
2018-May-25 08:08N 34°23' W 119°30'0 0.0
2018-May-25 07:43N 34°23' W 119°30'0 0.0
2018-May-25 07:15N 34°23' W 119°30'0 0.0
2018-May-25 05:21N 34°23' W 119°30'0 0.0
2018-May-25 05:00N 34°23' W 119°30'0 0.0
2018-May-25 03:40N 34°23' W 119°30'0 0.0
2018-May-25 03:28N 34°23' W 119°30'0 0.0
2018-May-25 02:46N 34°23' W 119°30'0 0.0
2018-May-25 02:17N 34°23' W 119°30'0 0.0
2018-May-25 02:00N 34°23' W 119°30'2 3.3
2018-May-25 01:26N 34°21' W 119°32'1 0.5
2018-May-24 23:14N 34°20' W 119°33'0 0.0
2018-May-24 22:38N 34°20' W 119°33'0 0.0
2018-May-24 22:27N 34°20' W 119°33'2 1.2
2018-May-24 21:03N 34°22' W 119°31'113.3
2018-May-24 20:57N 34°23' W 119°30'3 4.8
2018-May-24 20:17N 34°20' W 119°33'0 0.0
2018-May-24 19:58N 34°20' W 119°33'0 0.0
2018-May-24 19:25N 34°20' W 119°33'0 0.0
2018-May-24 19:00N 34°20' W 119°33'2 4.5
2018-May-24 18:29N 34°22' W 119°31'2 3.0
2018-May-24 17:43N 34°20' W 119°33'0 0.0
2018-May-24 16:40N 34°20' W 119°33'0 0.0
2018-May-24 15:22N 34°20' W 119°33'0 0.0
2018-May-24 14:54N 34°20' W 119°33'0 0.2
2018-May-24 14:15N 34°20' W 119°33'3 8.6
2018-May-24 13:57N 34°23' W 119°31'1 0.1
2018-May-24 07:33N 34°23' W 119°30'0 0.0
2018-May-24 07:15N 34°23' W 119°30'0 0.0
2018-May-24 06:57N 34°23' W 119°30'0 0.0
2018-May-24 06:15N 34°23' W 119°30'0 0.0
2018-May-24 04:24N 34°23' W 119°30'0 0.0
2018-May-24 03:55N 34°23' W 119°30'0 0.0
2018-May-24 03:04N 34°23' W 119°30'0 0.1
2018-May-24 02:57N 34°23' W 119°30'0 0.0
2018-May-24 02:30N 34°23' W 119°30'0 0.2
2018-May-24 01:58N 34°23' W 119°30'0 0.6
2018-May-24 01:23N 34°23' W 119°31'3 7.8
2018-May-24 00:57N 34°20' W 119°33'1 0.5
2018-May-23 22:27N 34°21' W 119°32'1 0.2
2018-May-23 17:56N 34°20' W 119°33'0 0.0
2018-May-23 15:40N 34°20' W 119°33'0 0.1
2018-May-23 15:27N 34°20' W 119°33'0 0.4
2018-May-23 14:57N 34°20' W 119°32'0 0.8
2018-May-23 14:20N 34°21' W 119°32'1 1.6
2018-May-23 13:48N 34°20' W 119°33'4 9.9
2018-May-23 13:26N 34°23' W 119°31'1 0.3
2018-May-23 11:44N 34°23' W 119°30'0 0.0
2018-May-23 11:26N 34°23' W 119°30'0 0.0
2018-May-23 10:55N 34°23' W 119°30'0 0.0
2018-May-23 10:30N 34°23' W 119°30'0 0.0
2018-May-23 09:57N 34°23' W 119°30'0 0.0
2018-May-23 09:15N 34°23' W 119°30'0 0.0
2018-May-23 08:03N 34°23' W 119°30'0 0.0
2018-May-23 07:57N 34°23' W 119°30'0 0.0
2018-May-23 07:27N 34°23' W 119°30'0 0.0
2018-May-23 05:32N 34°23' W 119°30'0 0.0
2018-May-23 05:13N 34°23' W 119°30'0 0.0
2018-May-23 03:48N 34°23' W 119°30'0 0.0
2018-May-23 03:30N 34°23' W 119°30'0 0.0
2018-May-23 02:51N 34°23' W 119°30'0 0.0
2018-May-23 02:24N 34°23' W 119°30'0 1.1
2018-May-23 02:00N 34°23' W 119°30'1 0.1
2018-May-22 16:20N 34°23' W 119°31'1 0.1
2018-May-22 06:44N 34°23' W 119°30'0 0.0
2018-May-22 05:26N 34°23' W 119°30'0 0.0
2018-May-22 04:49N 34°23' W 119°30'0 0.0
2018-May-22 04:22N 34°23' W 119°30'0 0.0
2018-May-22 03:23N 34°23' W 119°30'0 0.0
2018-May-22 02:23N 34°23' W 119°30'0 0.2
2018-May-22 01:59N 34°23' W 119°30'0 0.7
2018-May-22 01:22N 34°23' W 119°31'0 0.1
2018-May-21 22:22N 34°23' W 119°30'1 0.1
2018-May-21 18:43N 34°23' W 119°30'0 0.0
2018-May-21 18:24N 34°23' W 119°30'0 0.0
2018-May-21 16:38N 34°23' W 119°30'0 0.0
2018-May-21 16:19N 34°23' W 119°30'411.1
2018-May-21 16:00N 34°20' W 119°33'0 0.3
2018-May-21 14:30N 34°20' W 119°33'3 1.9
2018-May-21 12:54N 34°23' W 119°30'0 0.0
2018-May-21 07:39N 34°23' W 119°30'0 0.0
2018-May-21 07:27N 34°23' W 119°30'0 0.0
2018-May-21 06:57N 34°23' W 119°30'0 0.0
2018-May-21 06:21N 34°23' W 119°30'0 0.0
2018-May-21 04:28N 34°23' W 119°30'0 0.0
2018-May-21 03:42N 34°23' W 119°30'0 0.1
2018-May-21 03:17N 34°23' W 119°30'0 0.0
2018-May-21 03:00N 34°23' W 119°30'0 0.0
2018-May-21 02:29N 34°23' W 119°30'1 1.1
2018-May-21 01:59N 34°23' W 119°30'1 1.1
2018-May-21 01:28N 34°23' W 119°31'1 0.8
2018-May-21 00:47N 34°23' W 119°30'1 1.8
2018-May-21 00:29N 34°23' W 119°30'3 3.5
2018-May-20 23:35N 34°20' W 119°33'0 0.5
2018-May-20 23:27N 34°20' W 119°32'6 0.7
2018-May-20 14:22N 34°19' W 119°25'5 1.0
2018-May-20 08:41N 34°23' W 119°30'0 0.0
2018-May-20 08:12N 34°23' W 119°30'0 0.0
2018-May-20 07:43N 34°23' W 119°30'0 0.0
2018-May-20 07:28N 34°23' W 119°30'0 0.0
2018-May-20 07:00N 34°23' W 119°30'0 0.0
2018-May-20 02:50N 34°23' W 119°30'0 0.0
2018-May-20 02:29N 34°23' W 119°30'1 1.1
2018-May-20 01:59N 34°23' W 119°31'0 0.1
2018-May-20 01:16N 34°23' W 119°30'412.6
2018-May-20 00:59N 34°20' W 119°33'1 0.4
2018-May-19 23:23N 34°20' W 119°33'0 0.0
2018-May-19 22:49N 34°20' W 119°33'0 0.0
2018-May-19 19:25N 34°20' W 119°33'3 0.3
2018-May-19 09:49N 34°23' W 119°30'0 0.0
2018-May-19 05:26N 34°23' W 119°30'0 0.0
2018-May-19 04:57N 34°23' W 119°30'0 0.0
2018-May-19 02:30N 34°23' W 119°30'3 3.3
2018-May-19 01:33N 34°20' W 119°33'315.0
2018-May-19 01:21N 34°23' W 119°31'0 0.0
2018-May-18 06:32N 34°23' W 119°30'0 0.1
2018-May-18 06:26N 34°23' W 119°30'0 0.0
2018-May-18 05:59N 34°23' W 119°30'0 0.0
2018-May-18 04:46N 34°23' W 119°30'0 0.0
2018-May-18 04:22N 34°23' W 119°30'0 0.0
2018-May-18 03:38N 34°23' W 119°30'0 0.2
2018-May-18 03:25N 34°23' W 119°30'0 0.0
2018-May-18 02:40N 34°23' W 119°30'0 0.3
2018-May-18 02:15N 34°23' W 119°30'2 3.3
2018-May-18 01:45N 34°21' W 119°32'  
Track history (hours):
 
Tides and Currents Weather Stations Pressure Air Temp Water Temp Dewpoint Dewpoint Depression Visibility Wind Speed Wind Dir Waves Ship Positions

Aces Wild

Owner: C & C Boats, Inc., Huntington Beach, CA. More information available from US FCC via Universal Licensing System and Coast Guard Vessel Documentation Center.

Last reported at 2018-May-27 15:14 UTC. Time now 2018-Jun-20 16:43 UTC.
Position N 34°14' W 119°16'.
Warning: this ship's position is 24 days out of date.

Length 34 m.

Type: Passenger vessel. MMSI: 367338120.

Date/timePositionNaut miles runAvg speedWind from/ knotsBaromVisibWave heightAir tempDewpointWater temp
2018-May-27 15:14N 34°14' W 119°16'1 5.0
2018-May-27 14:59N 34°15' W 119°17'816.4
2018-May-27 14:30N 34°19' W 119°25'611.7
2018-May-27 13:57N 34°21' W 119°32'1 0.5
2018-May-27 10:54N 34°20' W 119°34'0 0.0
2018-May-27 10:28N 34°20' W 119°34'0 0.0
2018-May-27 06:41N 34°20' W 119°34'0 0.0
2018-May-27 06:19N 34°20' W 119°34'0 0.0
2018-May-27 05:10N 34°20' W 119°34'0 0.0
2018-May-27 04:54N 34°20' W 119°34'0 0.0
2018-May-27 04:26N 34°20' W 119°34'0 0.0
2018-May-27 03:49N 34°20' W 119°34'0 0.0
2018-May-27 02:16N 34°20' W 119°34'3 7.5
2018-May-27 01:53N 34°22' W 119°31'2 5.0
2018-May-27 01:27N 34°20' W 119°33'3 6.8
2018-May-27 00:58N 34°23' W 119°30'0 0.0
2018-May-27 00:30N 34°23' W 119°30'0 0.1
2018-May-27 00:00N 34°23' W 119°30'0 0.0
2018-May-26 23:25N 34°23' W 119°30'0 0.0
2018-May-26 23:00N 34°23' W 119°30'0 0.0
2018-May-26 22:28N 34°23' W 119°30'1 1.1
2018-May-26 21:58N 34°23' W 119°30'3 0.5
2018-May-26 16:11N 34°20' W 119°33'0 0.0
2018-May-26 15:52N 34°20' W 119°33'0 0.0
2018-May-26 14:48N 34°20' W 119°33'0 0.0
2018-May-26 14:25N 34°20' W 119°33'1 1.1
2018-May-26 13:52N 34°20' W 119°33'4 1.1
2018-May-26 10:32N 34°23' W 119°30'0 0.0
2018-May-26 10:20N 34°23' W 119°30'0 0.0
2018-May-26 09:40N 34°23' W 119°30'0 0.0
2018-May-26 09:18N 34°23' W 119°30'0 0.1
2018-May-26 08:58N 34°23' W 119°30'0 0.1
2018-May-26 08:24N 34°23' W 119°30'0 0.0
2018-May-26 07:57N 34°23' W 119°30'0 0.0
2018-May-26 06:47N 34°23' W 119°30'0 0.0
2018-May-26 06:25N 34°23' W 119°30'0 0.0
2018-May-26 04:27N 34°23' W 119°30'0 0.0
2018-May-26 03:57N 34°23' W 119°30'0 0.0
2018-May-26 03:28N 34°23' W 119°30'0 0.0
2018-May-26 02:55N 34°23' W 119°30'0 0.0
2018-May-26 02:28N 34°23' W 119°30'1 0.8
2018-May-26 01:48N 34°23' W 119°30'3 8.6
2018-May-26 01:25N 34°20' W 119°33'3 8.0
2018-May-26 01:00N 34°23' W 119°30'3 4.4
2018-May-26 00:17N 34°20' W 119°33'0 0.0
2018-May-25 22:36N 34°20' W 119°33'1 9.6
2018-May-25 22:27N 34°21' W 119°31'0 0.0
2018-May-25 18:02N 34°21' W 119°32'2 6.8
2018-May-25 17:44N 34°23' W 119°30'0 0.0
2018-May-25 17:29N 34°23' W 119°30'1 0.4
2018-May-25 16:09N 34°23' W 119°30'3 2.6
2018-May-25 14:48N 34°20' W 119°33'1 1.1
2018-May-25 14:20N 34°20' W 119°33'3 3.6
2018-May-25 13:26N 34°23' W 119°30'1 0.8
2018-May-25 12:47N 34°23' W 119°30'0 0.0
2018-May-25 11:28N 34°23' W 119°30'0 0.0
2018-May-25 10:55N 34°23' W 119°30'0 0.0
2018-May-25 10:28N 34°23' W 119°30'0 0.0
2018-May-25 09:04N 34°23' W 119°30'0 0.0
2018-May-25 08:34N 34°23' W 119°30'0 0.0
2018-May-25 08:08N 34°23' W 119°30'0 0.0
2018-May-25 07:43N 34°23' W 119°30'0 0.0
2018-May-25 07:15N 34°23' W 119°30'0 0.0
2018-May-25 05:21N 34°23' W 119°30'0 0.0
2018-May-25 05:00N 34°23' W 119°30'0 0.0
2018-May-25 03:40N 34°23' W 119°30'0 0.0
2018-May-25 03:28N 34°23' W 119°30'0 0.0
2018-May-25 02:46N 34°23' W 119°30'0 0.0
2018-May-25 02:17N 34°23' W 119°30'0 0.0
2018-May-25 02:00N 34°23' W 119°30'2 3.3
2018-May-25 01:26N 34°21' W 119°32'1 0.5
2018-May-24 23:14N 34°20' W 119°33'0 0.0
2018-May-24 22:38N 34°20' W 119°33'0 0.0
2018-May-24 22:27N 34°20' W 119°33'2 1.2
2018-May-24 21:03N 34°22' W 119°31'113.3
2018-May-24 20:57N 34°23' W 119°30'3 4.8
2018-May-24 20:17N 34°20' W 119°33'0 0.0
2018-May-24 19:58N 34°20' W 119°33'0 0.0
2018-May-24 19:25N 34°20' W 119°33'0 0.0
2018-May-24 19:00N 34°20' W 119°33'2 4.5
2018-May-24 18:29N 34°22' W 119°31'2 3.0
2018-May-24 17:43N 34°20' W 119°33'0 0.0
2018-May-24 16:40N 34°20' W 119°33'0 0.0
2018-May-24 15:22N 34°20' W 119°33'0 0.0
2018-May-24 14:54N 34°20' W 119°33'0 0.2
2018-May-24 14:15N 34°20' W 119°33'3 8.6
2018-May-24 13:57N 34°23' W 119°31'1 0.1
2018-May-24 07:33N 34°23' W 119°30'0 0.0
2018-May-24 07:15N 34°23' W 119°30'0 0.0
2018-May-24 06:57N 34°23' W 119°30'0 0.0
2018-May-24 06:15N 34°23' W 119°30'0 0.0
2018-May-24 04:24N 34°23' W 119°30'0 0.0
2018-May-24 03:55N 34°23' W 119°30'0 0.0
2018-May-24 03:04N 34°23' W 119°30'0 0.1
2018-May-24 02:57N 34°23' W 119°30'0 0.0
2018-May-24 02:30N 34°23' W 119°30'0 0.2
2018-May-24 01:58N 34°23' W 119°30'0 0.6
2018-May-24 01:23N 34°23' W 119°31'3 7.8
2018-May-24 00:57N 34°20' W 119°33'1 0.5
2018-May-23 22:27N 34°21' W 119°32'1 0.2
2018-May-23 17:56N 34°20' W 119°33'0 0.0
2018-May-23 15:40N 34°20' W 119°33'0 0.1
2018-May-23 15:27N 34°20' W 119°33'0 0.4
2018-May-23 14:57N 34°20' W 119°32'0 0.8
2018-May-23 14:20N 34°21' W 119°32'1 1.6
2018-May-23 13:48N 34°20' W 119°33'4 9.9
2018-May-23 13:26N 34°23' W 119°31'1 0.3
2018-May-23 11:44N 34°23' W 119°30'0 0.0
2018-May-23 11:26N 34°23' W 119°30'0 0.0
2018-May-23 10:55N 34°23' W 119°30'0 0.0
2018-May-23 10:30N 34°23' W 119°30'0 0.0
2018-May-23 09:57N 34°23' W 119°30'0 0.0
2018-May-23 09:15N 34°23' W 119°30'0 0.0
2018-May-23 08:03N 34°23' W 119°30'0 0.0
2018-May-23 07:57N 34°23' W 119°30'0 0.0
2018-May-23 07:27N 34°23' W 119°30'0 0.0
2018-May-23 05:32N 34°23' W 119°30'0 0.0
2018-May-23 05:13N 34°23' W 119°30'0 0.0
2018-May-23 03:48N 34°23' W 119°30'0 0.0
2018-May-23 03:30N 34°23' W 119°30'0 0.0
2018-May-23 02:51N 34°23' W 119°30'0 0.0
2018-May-23 02:24N 34°23' W 119°30'0 1.1
2018-May-23 02:00N 34°23' W 119°30'1 0.1
2018-May-22 16:20N 34°23' W 119°31'1 0.1
2018-May-22 06:44N 34°23' W 119°30'0 0.0
2018-May-22 05:26N 34°23' W 119°30'0 0.0
2018-May-22 04:49N 34°23' W 119°30'0 0.0
2018-May-22 04:22N 34°23' W 119°30'0 0.0
2018-May-22 03:23N 34°23' W 119°30'0 0.0
2018-May-22 02:23N 34°23' W 119°30'0 0.2
2018-May-22 01:59N 34°23' W 119°30'0 0.7
2018-May-22 01:22N 34°23' W 119°31'0 0.1
2018-May-21 22:22N 34°23' W 119°30'1 0.1
2018-May-21 18:43N 34°23' W 119°30'0 0.0
2018-May-21 18:24N 34°23' W 119°30'0 0.0
2018-May-21 16:38N 34°23' W 119°30'0 0.0
2018-May-21 16:19N 34°23' W 119°30'411.1
2018-May-21 16:00N 34°20' W 119°33'0 0.3
2018-May-21 14:30N 34°20' W 119°33'3 1.9
2018-May-21 12:54N 34°23' W 119°30'0 0.0
2018-May-21 07:39N 34°23' W 119°30'0 0.0
2018-May-21 07:27N 34°23' W 119°30'0 0.0
2018-May-21 06:57N 34°23' W 119°30'0 0.0
2018-May-21 06:21N 34°23' W 119°30'0 0.0
2018-May-21 04:28N 34°23' W 119°30'0 0.0
2018-May-21 03:42N 34°23' W 119°30'0 0.1
2018-May-21 03:17N 34°23' W 119°30'0 0.0
2018-May-21 03:00N 34°23' W 119°30'0 0.0
2018-May-21 02:29N 34°23' W 119°30'1 1.1
2018-May-21 01:59N 34°23' W 119°30'1 1.1
2018-May-21 01:28N 34°23' W 119°31'1 0.8
2018-May-21 00:47N 34°23' W 119°30'1 1.8
2018-May-21 00:29N 34°23' W 119°30'3 3.5
2018-May-20 23:35N 34°20' W 119°33'0 0.5
2018-May-20 23:27N 34°20' W 119°32'6 0.7
2018-May-20 14:22N 34°19' W 119°25'5 1.0
2018-May-20 08:41N 34°23' W 119°30'0 0.0
2018-May-20 08:12N 34°23' W 119°30'0 0.0
2018-May-20 07:43N 34°23' W 119°30'0 0.0
2018-May-20 07:28N 34°23' W 119°30'0 0.0
2018-May-20 07:00N 34°23' W 119°30'0 0.0
2018-May-20 02:50N 34°23' W 119°30'0 0.0
2018-May-20 02:29N 34°23' W 119°30'1 1.1
2018-May-20 01:59N 34°23' W 119°31'0 0.1
2018-May-20 01:16N 34°23' W 119°30'412.6
2018-May-20 00:59N 34°20' W 119°33'1 0.4
2018-May-19 23:23N 34°20' W 119°33'0 0.0
2018-May-19 22:49N 34°20' W 119°33'0 0.0
2018-May-19 19:25N 34°20' W 119°33'3 0.3
2018-May-19 09:49N 34°23' W 119°30'0 0.0
2018-May-19 05:26N 34°23' W 119°30'0 0.0
2018-May-19 04:57N 34°23' W 119°30'0 0.0
2018-May-19 02:30N 34°23' W 119°30'3 3.3
2018-May-19 01:33N 34°20' W 119°33'315.0
2018-May-19 01:21N 34°23' W 119°31'0 0.0
2018-May-18 06:32N 34°23' W 119°30'0 0.1
2018-May-18 06:26N 34°23' W 119°30'0 0.0
2018-May-18 05:59N 34°23' W 119°30'0 0.0
2018-May-18 04:46N 34°23' W 119°30'0 0.0
2018-May-18 04:22N 34°23' W 119°30'0 0.0
2018-May-18 03:38N 34°23' W 119°30'0 0.2
2018-May-18 03:25N 34°23' W 119°30'0 0.0
2018-May-18 02:40N 34°23' W 119°30'0 0.3
2018-May-18 02:15N 34°23' W 119°30'2 3.3
2018-May-18 01:45N 34°21' W 119°32'  

Dump ship's entire track history